UNTT/TOF METAR and TAF weather

Enter ICAO airport designator
Station Type Date Time Source
UNTT METAR 2022/01/19 18:30 UTC NOAA

UNTT 191830Z 21004MPS CAVOK M12/M14 Q1023 R21/////// NOSIG RMK QFE752


Station Type Date Time Source
UNTT Decoded METAR 2022/01/19 18:30 UTC NOAA

Station name not available
Jan 19, 2022 - 01:30 PM EST / 2022.01.19 1830 UTC
Wind: from the SSW (210 degrees) at 9 MPH (8 KT):0
Visibility: greater than 7 mile(s):0
Temperature: 10 F (-12 C)
Windchill: -2 F (-19 C):1
Dew Point: 6 F (-14 C)
Relative Humidity: 85%
Pressure (altimeter): 30.21 in. Hg (1023 hPa)
ob: UNTT 191830Z 21004MPS CAVOK M12/M14 Q1023 R21/////// NOSIG RMK QFE752
cycle: 18

Station Type Date Time Source
UNTT TAF UTC NOAA

Error!

Example: see airport list